| time (UTC) | temp C | wind direction | speed KPH | gust KPH | rain 1hr cm | rain 24hr cm | rain mn cm | humidity % | barometer mb |
| 20260906233102 | 27 | 360 | 1.6 | 12.9 | 0.00 | 0.00 | 0.00 | 15 | 1012.3 |
| 20260906231604 | 27 | 0 | 0.0 | 8.0 | 0.00 | 0.00 | 0.00 | 16 | 1012.3 |
| 20260906230119 | 27 | 0 | 0.0 | 12.9 | 0.00 | 0.00 | 0.00 | 16 | 1012.2 |
| 20260906224614 | 28 | 0 | 0.0 | 4.8 | 0.00 | 0.00 | 0.00 | 15 | 1012.5 |
| 20260906223110 | 28 | 0 | 0.0 | 6.4 | 0.00 | 0.00 | 0.00 | 14 | 1012.6 |
| 20260906221605 | 28 | 360 | 1.6 | 20.9 | 0.00 | 0.00 | 0.00 | 13 | 1012.9 |
| 20260906214605 | 29 | 360 | 0.0 | 6.4 | 0.00 | 0.00 | 0.00 | 13 | 1012.9 |
| 20260906213112 | 29 | 0 | 0.0 | 9.7 | 0.00 | 0.00 | 0.00 | 13 | 1013.0 |
| 20260906211612 | 29 | 360 | 0.0 | 14.5 | 0.00 | 0.00 | 0.00 | 13 | 1013.1 |
| 20260906210111 | 29 | 0 | 1.6 | 12.9 | 0.00 | 0.00 | 0.00 | 12 | 1013.3 |
| 20260906204605 | 28 | 360 | 0.0 | 8.0 | 0.00 | 0.00 | 0.00 | 13 | 1013.5 |
| 20260906203103 | 28 | 360 | 0.0 | 8.0 | 0.00 | 0.00 | 0.00 | 13 | 1013.7 |
| 20260906201616 | 28 | 360 | 1.6 | 16.1 | 0.00 | 0.00 | 0.00 | 14 | 1014.0 |
| 20260906200059 | 28 | 0 | 1.6 | 14.5 | 0.00 | 0.00 | 0.00 | 14 | 1013.9 |
| 20260906194605 | 28 | 0 | 1.6 | 9.7 | 0.00 | 0.00 | 0.00 | 15 | 1013.8 |
| 20260906193104 | 28 | 360 | 0.0 | 14.5 | 0.00 | 0.00 | 0.00 | 14 | 1013.9 |
| 20260906191606 | 28 | 360 | 0.0 | 6.4 | 0.00 | 0.00 | 0.00 | 15 | 1013.9 |
| 20260906190106 | 28 | 0 | 0.0 | 17.7 | 0.00 | 0.00 | 0.00 | 16 | 1014.4 |
| 20260906184604 | 27 | 360 | 0.0 | 6.4 | 0.00 | 0.00 | 0.00 | 15 | 1014.6 |
| 20260906183117 | 27 | 0 | 0.0 | 9.7 | 0.00 | 0.00 | 0.00 | 16 | 1015.0 |
| 20260906181614 | 27 | 0 | 0.0 | 4.8 | 0.00 | 0.00 | 0.00 | 18 | 1015.1 |
| 20260906180123 | 27 | 0 | 0.0 | 3.2 | 0.00 | 0.00 | 0.00 | 19 | 1015.3 |
| 20260906174602 | 27 | 0 | 0.0 | 0.0 | 0.00 | 0.00 | 0.00 | 24 | 1015.6 |
| 20260906173101 | 25 | 0 | 0.0 | 0.0 | 0.00 | 0.00 | 0.00 | 32 | 1015.8 |
| 20260906171607 | 22 | 0 | 0.0 | 0.0 | 0.00 | 0.00 | 0.00 | 34 | 1016.2 |
| 20260906170107 | 22 | 0 | 0.0 | 1.6 | 0.00 | 0.00 | 0.00 | 36 | 1016.4 |
| 20260906164604 | 21 | 0 | 0.0 | 0.0 | 0.00 | 0.00 | 0.00 | 36 | 1016.6 |
| 20260906163110 | 20 | 0 | 0.0 | 0.0 | 0.00 | 0.00 | 0.00 | 38 | 1016.6 |
| 20260906161605 | 20 | 0 | 0.0 | 0.0 | 0.00 | 0.00 | 0.00 | 39 | 1016.8 |
| 20260906160105 | 19 | 0 | 0.0 | 0.0 | 0.00 | 0.00 | 0.00 | 40 | 1016.9 |
| 20260906154608 | 18 | 0 | 0.0 | 0.0 | 0.00 | 0.00 | 0.00 | 41 | 1017.1 |
| 20260906153102 | 17 | 0 | 0.0 | 0.0 | 0.00 | 0.00 | 0.00 | 42 | 1017.3 |
| 20260906151604 | 16 | 0 | 0.0 | 0.0 | 0.00 | 0.00 | 0.00 | 45 | 1017.3 |
| 20260906150107 | 14 | 0 | 0.0 | 0.0 | 0.00 | 0.00 | 0.00 | 50 | 1017.3 |
| 20260906144608 | 13 | 0 | 0.0 | 0.0 | 0.00 | 0.00 | 0.00 | 51 | 1017.3 |
| 20260906143108 | 11 | 0 | 0.0 | 0.0 | 0.00 | 0.00 | 0.00 | 54 | 1017.4 |
| 20260906141614 | 10 | 0 | 0.0 | 0.0 | 0.00 | 0.00 | 0.00 | 57 | 1017.2 |
| 20260906140100 | 10 | 0 | 0.0 | 0.0 | 0.00 | 0.00 | 0.00 | 60 | 1017.3 |
| 20260906134606 | 10 | 0 | 0.0 | 0.0 | 0.00 | 0.00 | 0.00 | 59 | 1017.3 |
| 20260906133110 | 10 | 0 | 0.0 | 0.0 | 0.00 | 0.00 | 0.00 | 58 | 1017.2 |
| 20260906131607 | 10 | 0 | 0.0 | 0.0 | 0.00 | 0.00 | 0.00 | 59 | 1017.1 |
| 20260906130107 | 10 | 0 | 0.0 | 0.0 | 0.00 | 0.00 | 0.00 | 58 | 1016.9 |
| 20260906124605 | 10 | 0 | 0.0 | 0.0 | 0.00 | 0.00 | 0.00 | 57 | 1016.7 |
| 20260906123104 | 10 | 0 | 0.0 | 0.0 | 0.00 | 0.00 | 0.00 | 57 | 1016.8 |
| 20260906121608 | 10 | 0 | 0.0 | 0.0 | 0.00 | 0.00 | 0.00 | 57 | 1016.6 |
| 20260906114613 | 11 | 0 | 0.0 | 0.0 | 0.00 | 0.00 | 0.00 | 55 | 1016.6 |
| 20260906113104 | 11 | 0 | 0.0 | 0.0 | 0.00 | 0.00 | 0.00 | 53 | 1016.4 |
| 20260906111600 | 12 | 0 | 0.0 | 0.0 | 0.00 | 0.00 | 0.00 | 52 | 1016.5 |
| 20260906110105 | 12 | 0 | 0.0 | 0.0 | 0.00 | 0.00 | 0.00 | 50 | 1016.4 |
| 20260906104602 | 13 | 0 | 0.0 | 0.0 | 0.00 | 0.00 | 0.00 | 48 | 1016.3 |
| 20260906103059 | 13 | 0 | 0.0 | 0.0 | 0.00 | 0.00 | 0.00 | 47 | 1016.1 |
| 20260906101557 | 14 | 0 | 0.0 | 0.0 | 0.00 | 0.00 | 0.00 | 50 | 1015.9 |
| 20260906094601 | 16 | 0 | 0.0 | 1.6 | 0.00 | 0.00 | 0.00 | 44 | 1015.6 |
| 20260906093059 | 16 | 0 | 0.0 | 3.2 | 0.00 | 0.00 | 0.00 | 47 | 1015.4 |
| 20260906091558 | 16 | 0 | 0.0 | 1.6 | 0.00 | 0.00 | 0.00 | 46 | 1015.4 |
| 20260906090107 | 15 | 0 | 0.0 | 3.2 | 0.00 | 0.00 | 0.00 | 46 | 1015.3 |
| 20260906084600 | 13 | 0 | 0.0 | 0.0 | 0.00 | 0.00 | 0.00 | 46 | 1015.1 |
| 20260906083059 | 13 | 0 | 0.0 | 0.0 | 0.00 | 0.00 | 0.00 | 45 | 1015.0 |
| 20260906081619 | 14 | 0 | 0.0 | 0.0 | 0.00 | 0.00 | 0.00 | 43 | 1014.8 |
| 20260906080059 | 15 | 0 | 0.0 | 0.0 | 0.00 | 0.00 | 0.00 | 42 | 1014.7 |
| 20260906074616 | 15 | 0 | 0.0 | 0.0 | 0.00 | 0.00 | 0.00 | 39 | 1014.7 |
| 20260906073101 | 16 | 0 | 0.0 | 0.0 | 0.00 | 0.00 | 0.00 | 37 | 1014.6 |
| 20260906071605 | 16 | 0 | 0.0 | 0.0 | 0.00 | 0.00 | 0.00 | 34 | 1014.5 |
| 20260906070112 | 17 | 0 | 0.0 | 0.0 | 0.00 | 0.00 | 0.00 | 31 | 1014.2 |
| 20260906064603 | 18 | 0 | 0.0 | 0.0 | 0.00 | 0.00 | 0.00 | 31 | 1014.1 |
| 20260906063102 | 18 | 0 | 0.0 | 1.6 | 0.00 | 0.00 | 0.00 | 31 | 1014.2 |
| 20260906061611 | 18 | 0 | 0.0 | 0.0 | 0.00 | 0.00 | 0.00 | 31 | 1014.1 |
| 20260906060111 | 18 | 0 | 0.0 | 0.0 | 0.00 | 0.00 | 0.00 | 30 | 1014.2 |
| 20260906054601 | 18 | 0 | 0.0 | 3.2 | 0.00 | 0.00 | 0.00 | 30 | 1014.2 |
| 20260906053102 | 18 | 0 | 0.0 | 0.0 | 0.00 | 0.00 | 0.00 | 30 | 1014.2 |
| 20260906051605 | 18 | 0 | 0.0 | 0.0 | 0.00 | 0.00 | 0.00 | 30 | 1014.5 |
| 20260906050059 | 19 | 0 | 0.0 | 0.0 | 0.00 | 0.00 | 0.00 | 28 | 1014.5 |
| 20260906044602 | 20 | 0 | 0.0 | 1.6 | 0.00 | 0.00 | 0.00 | 27 | 1014.7 |
| 20260906043059 | 20 | 0 | 0.0 | 0.0 | 0.00 | 0.00 | 0.00 | 27 | 1014.8 |
| 20260906041557 | 20 | 0 | 0.0 | 0.0 | 0.00 | 0.00 | 0.00 | 25 | 1014.8 |
| 20260906040058 | 20 | 0 | 0.0 | 1.6 | 0.00 | 0.00 | 0.00 | 25 | 1014.9 |
| 20260906034601 | 21 | 0 | 0.0 | 1.6 | 0.00 | 0.00 | 0.00 | 26 | 1015.0 |
| 20260906033102 | 21 | 0 | 0.0 | 0.0 | 0.00 | 0.00 | 0.00 | 26 | 1015.0 |
| 20260906031607 | 21 | 0 | 0.0 | 0.0 | 0.00 | 0.00 | 0.00 | 27 | 1014.9 |
| 20260906030105 | 22 | 0 | 0.0 | 0.0 | 0.00 | 0.00 | 0.00 | 27 | 1015.1 |
| 20260906024604 | 23 | 0 | 0.0 | 0.0 | 0.00 | 0.00 | 0.00 | 26 | 1015.0 |
| 20260906023059 | 24 | 0 | 0.0 | 0.0 | 0.00 | 0.00 | 0.00 | 22 | 1014.9 |
| 20260906021608 | 25 | 0 | 0.0 | 0.0 | 0.00 | 0.00 | 0.00 | 19 | 1014.8 |
| 20260906020106 | 26 | 0 | 0.0 | 0.0 | 0.00 | 0.00 | 0.00 | 18 | 1014.8 |
| 20260906014559 | 26 | 0 | 0.0 | 3.2 | 0.00 | 0.00 | 0.00 | 16 | 1014.7 |
| 20260906013057 | 27 | 360 | 0.0 | 8.0 | 0.00 | 0.00 | 0.00 | 15 | 1014.9 |
| 20260906011606 | 27 | 360 | 0.0 | 1.6 | 0.00 | 0.00 | 0.00 | 15 | 1014.9 |
| 20260906010104 | 28 | 0 | 0.0 | 3.2 | 0.00 | 0.00 | 0.00 | 14 | 1014.9 |
| 20260906004603 | 28 | 0 | 0.0 | 1.6 | 0.00 | 0.00 | 0.00 | 14 | 1014.7 |
| 20260906003110 | 28 | 0 | 0.0 | 3.2 | 0.00 | 0.00 | 0.00 | 14 | 1014.7 |
| 20260906001610 | 29 | 0 | 0.0 | 3.2 | 0.00 | 0.00 | 0.00 | 14 | 1014.7 |
| 20260906000108 | 29 | 0 | 0.0 | 3.2 | 0.00 | 0.00 | 0.00 | 14 | 1014.9 |
| 20260905234606 | 29 | 0 | 0.0 | 4.8 | 0.00 | 0.00 | 0.00 | 14 | 1014.7 |